sensor_id;sensor_type;location;lat;lon;timestamp;temperature;humidity
4406;DHT22;2216;53.806;11.598;2023-05-23T00:01:38;18.00;48.50
4406;DHT22;2216;53.806;11.598;2023-05-23T00:04:04;17.90;48.40
4406;DHT22;2216;53.806;11.598;2023-05-23T00:06:31;18.00;48.60
4406;DHT22;2216;53.806;11.598;2023-05-23T00:08:57;17.90;48.60
4406;DHT22;2216;53.806;11.598;2023-05-23T00:11:23;17.90;48.60
4406;DHT22;2216;53.806;11.598;2023-05-23T00:13:53;17.90;48.60
4406;DHT22;2216;53.806;11.598;2023-05-23T00:16:20;17.90;48.70
4406;DHT22;2216;53.806;11.598;2023-05-23T00:18:47;17.90;49.30
4406;DHT22;2216;53.806;11.598;2023-05-23T00:21:15;17.90;48.70
4406;DHT22;2216;53.806;11.598;2023-05-23T00:23:41;17.90;48.80
4406;DHT22;2216;53.806;11.598;2023-05-23T00:26:10;17.90;48.80
4406;DHT22;2216;53.806;11.598;2023-05-23T00:28:36;17.80;49.10
4406;DHT22;2216;53.806;11.598;2023-05-23T00:31:02;17.80;49.20
4406;DHT22;2216;53.806;11.598;2023-05-23T00:33:28;17.70;48.80
4406;DHT22;2216;53.806;11.598;2023-05-23T00:35:54;17.70;48.90
4406;DHT22;2216;53.806;11.598;2023-05-23T00:38:19;17.70;49.00
4406;DHT22;2216;53.806;11.598;2023-05-23T00:40:46;17.70;49.10
4406;DHT22;2216;53.806;11.598;2023-05-23T00:43:12;17.60;49.20
4406;DHT22;2216;53.806;11.598;2023-05-23T00:45:38;17.60;49.10
4406;DHT22;2216;53.806;11.598;2023-05-23T00:48:04;17.60;49.10
4406;DHT22;2216;53.806;11.598;2023-05-23T00:50:31;17.60;49.20
4406;DHT22;2216;53.806;11.598;2023-05-23T00:52:59;17.50;49.30
4406;DHT22;2216;53.806;11.598;2023-05-23T00:55:25;17.50;49.50
4406;DHT22;2216;53.806;11.598;2023-05-23T00:57:53;17.50;49.50
4406;DHT22;2216;53.806;11.598;2023-05-23T01:00:25;17.40;49.70
4406;DHT22;2216;53.806;11.598;2023-05-23T01:02:52;17.40;49.60
4406;DHT22;2216;53.806;11.598;2023-05-23T01:05:19;17.40;49.50
4406;DHT22;2216;53.806;11.598;2023-05-23T01:07:48;17.40;50.30
4406;DHT22;2216;53.806;11.598;2023-05-23T01:10:15;17.40;50.40
4406;DHT22;2216;53.806;11.598;2023-05-23T01:13:17;17.40;50.10
4406;DHT22;2216;53.806;11.598;2023-05-23T01:15:57;17.30;50.10
4406;DHT22;2216;53.806;11.598;2023-05-23T01:18:37;17.30;50.90
4406;DHT22;2216;53.806;11.598;2023-05-23T01:21:10;17.30;50.40
4406;DHT22;2216;53.806;11.598;2023-05-23T01:26:58;17.20;50.30
4406;DHT22;2216;53.806;11.598;2023-05-23T01:29:36;17.20;50.30
4406;DHT22;2216;53.806;11.598;2023-05-23T01:32:06;17.20;50.30
4406;DHT22;2216;53.806;11.598;2023-05-23T01:34:36;17.20;50.50
4406;DHT22;2216;53.806;11.598;2023-05-23T01:37:07;17.20;50.50
4406;DHT22;2216;53.806;11.598;2023-05-23T01:39:36;17.20;50.60
4406;DHT22;2216;53.806;11.598;2023-05-23T01:42:03;17.10;50.40
4406;DHT22;2216;53.806;11.598;2023-05-23T01:44:30;17.10;50.30
4406;DHT22;2216;53.806;11.598;2023-05-23T01:46:57;17.10;50.60
4406;DHT22;2216;53.806;11.598;2023-05-23T01:49:23;17.10;50.90
4406;DHT22;2216;53.806;11.598;2023-05-23T01:51:49;17.00;50.50
4406;DHT22;2216;53.806;11.598;2023-05-23T01:54:15;17.00;50.50
4406;DHT22;2216;53.806;11.598;2023-05-23T01:56:44;17.00;50.50
4406;DHT22;2216;53.806;11.598;2023-05-23T01:59:10;17.00;50.50
4406;DHT22;2216;53.806;11.598;2023-05-23T02:01:36;17.00;50.70
4406;DHT22;2216;53.806;11.598;2023-05-23T02:04:03;17.00;50.70
4406;DHT22;2216;53.806;11.598;2023-05-23T02:06:29;17.00;50.70
4406;DHT22;2216;53.806;11.598;2023-05-23T02:08:56;17.00;50.80
4406;DHT22;2216;53.806;11.598;2023-05-23T02:11:21;16.90;50.70
4406;DHT22;2216;53.806;11.598;2023-05-23T02:13:47;17.00;50.80
4406;DHT22;2216;53.806;11.598;2023-05-23T02:16:13;16.90;50.90
4406;DHT22;2216;53.806;11.598;2023-05-23T02:18:38;16.90;50.90
4406;DHT22;2216;53.806;11.598;2023-05-23T02:21:05;16.90;50.80
4406;DHT22;2216;53.806;11.598;2023-05-23T02:23:30;17.00;50.90
4406;DHT22;2216;53.806;11.598;2023-05-23T02:25:56;17.00;50.90
4406;DHT22;2216;53.806;11.598;2023-05-23T02:28:22;17.00;50.90
4406;DHT22;2216;53.806;11.598;2023-05-23T02:30:47;16.90;50.80
4406;DHT22;2216;53.806;11.598;2023-05-23T02:33:13;16.90;50.70
4406;DHT22;2216;53.806;11.598;2023-05-23T02:35:40;16.90;50.80
4406;DHT22;2216;53.806;11.598;2023-05-23T02:38:06;16.90;50.80
4406;DHT22;2216;53.806;11.598;2023-05-23T02:40:32;16.90;50.80
4406;DHT22;2216;53.806;11.598;2023-05-23T02:42:57;16.90;50.80
4406;DHT22;2216;53.806;11.598;2023-05-23T02:45:23;16.90;50.80
4406;DHT22;2216;53.806;11.598;2023-05-23T02:47:49;16.90;51.40
4406;DHT22;2216;53.806;11.598;2023-05-23T02:50:15;16.90;50.90
4406;DHT22;2216;53.806;11.598;2023-05-23T02:52:41;16.80;50.90
4406;DHT22;2216;53.806;11.598;2023-05-23T02:55:07;16.80;50.90
4406;DHT22;2216;53.806;11.598;2023-05-23T02:57:33;16.80;50.90
4406;DHT22;2216;53.806;11.598;2023-05-23T02:59:59;16.80;51.00
4406;DHT22;2216;53.806;11.598;2023-05-23T03:02:24;16.80;51.10
4406;DHT22;2216;53.806;11.598;2023-05-23T03:04:51;16.70;51.20
4406;DHT22;2216;53.806;11.598;2023-05-23T03:07:16;16.70;51.10
4406;DHT22;2216;53.806;11.598;2023-05-23T03:09:42;16.80;51.30
4406;DHT22;2216;53.806;11.598;2023-05-23T03:12:08;16.80;51.50
4406;DHT22;2216;53.806;11.598;2023-05-23T03:14:33;16.70;51.40
4406;DHT22;2216;53.806;11.598;2023-05-23T03:16:59;16.70;51.40
4406;DHT22;2216;53.806;11.598;2023-05-23T03:19:25;16.80;51.60
4406;DHT22;2216;53.806;11.598;2023-05-23T03:21:50;16.70;51.50
4406;DHT22;2216;53.806;11.598;2023-05-23T03:24:16;16.70;51.30
4406;DHT22;2216;53.806;11.598;2023-05-23T03:26:42;16.80;51.40
4406;DHT22;2216;53.806;11.598;2023-05-23T03:29:09;16.80;51.40
4406;DHT22;2216;53.806;11.598;2023-05-23T03:31:35;16.70;51.40
4406;DHT22;2216;53.806;11.598;2023-05-23T03:34:02;16.80;51.50
4406;DHT22;2216;53.806;11.598;2023-05-23T03:36:30;16.70;51.50
4406;DHT22;2216;53.806;11.598;2023-05-23T03:38:58;16.80;51.60
4406;DHT22;2216;53.806;11.598;2023-05-23T03:41:24;16.80;51.70
4406;DHT22;2216;53.806;11.598;2023-05-23T03:43:50;16.70;51.50
4406;DHT22;2216;53.806;11.598;2023-05-23T03:46:16;16.70;51.50
4406;DHT22;2216;53.806;11.598;2023-05-23T03:48:42;16.70;51.50
4406;DHT22;2216;53.806;11.598;2023-05-23T03:51:07;16.70;51.50
4406;DHT22;2216;53.806;11.598;2023-05-23T03:53:33;16.80;51.60
4406;DHT22;2216;53.806;11.598;2023-05-23T03:55:58;16.70;51.50
4406;DHT22;2216;53.806;11.598;2023-05-23T03:58:24;16.70;51.50
4406;DHT22;2216;53.806;11.598;2023-05-23T04:00:50;16.80;51.60
4406;DHT22;2216;53.806;11.598;2023-05-23T04:03:17;16.70;51.50
4406;DHT22;2216;53.806;11.598;2023-05-23T04:05:43;16.80;51.80
4406;DHT22;2216;53.806;11.598;2023-05-23T04:08:08;16.70;51.80
4406;DHT22;2216;53.806;11.598;2023-05-23T04:10:34;16.70;51.70
4406;DHT22;2216;53.806;11.598;2023-05-23T04:13:00;16.70;51.70
4406;DHT22;2216;53.806;11.598;2023-05-23T04:15:26;16.70;52.00
4406;DHT22;2216;53.806;11.598;2023-05-23T04:17:52;16.70;52.00
4406;DHT22;2216;53.806;11.598;2023-05-23T04:20:18;16.70;52.00
4406;DHT22;2216;53.806;11.598;2023-05-23T04:22:44;16.80;52.00
4406;DHT22;2216;53.806;11.598;2023-05-23T04:25:09;16.80;52.00
4406;DHT22;2216;53.806;11.598;2023-05-23T04:27:35;16.70;52.00
4406;DHT22;2216;53.806;11.598;2023-05-23T04:30:05;16.70;52.00
4406;DHT22;2216;53.806;11.598;2023-05-23T04:32:33;16.80;52.00
4406;DHT22;2216;53.806;11.598;2023-05-23T04:34:59;16.80;52.00
4406;DHT22;2216;53.806;11.598;2023-05-23T04:37:26;16.80;52.00
4406;DHT22;2216;53.806;11.598;2023-05-23T04:39:53;16.80;52.20
4406;DHT22;2216;53.806;11.598;2023-05-23T04:42:18;16.80;52.10
4406;DHT22;2216;53.806;11.598;2023-05-23T04:44:49;16.80;52.20
4406;DHT22;2216;53.806;11.598;2023-05-23T04:47:16;16.80;52.30
4406;DHT22;2216;53.806;11.598;2023-05-23T04:49:42;16.80;52.30
4406;DHT22;2216;53.806;11.598;2023-05-23T04:52:08;16.80;52.30
4406;DHT22;2216;53.806;11.598;2023-05-23T04:54:34;16.80;52.20
4406;DHT22;2216;53.806;11.598;2023-05-23T04:57:01;16.80;52.30
4406;DHT22;2216;53.806;11.598;2023-05-23T04:59:27;16.80;52.30
4406;DHT22;2216;53.806;11.598;2023-05-23T05:01:53;16.80;52.30
4406;DHT22;2216;53.806;11.598;2023-05-23T05:04:19;16.80;52.30
4406;DHT22;2216;53.806;11.598;2023-05-23T05:06:45;16.80;52.30
4406;DHT22;2216;53.806;11.598;2023-05-23T05:09:12;16.80;52.40
4406;DHT22;2216;53.806;11.598;2023-05-23T05:11:38;16.80;52.40
4406;DHT22;2216;53.806;11.598;2023-05-23T05:14:03;16.80;52.50
4406;DHT22;2216;53.806;11.598;2023-05-23T05:16:29;16.70;52.50
4406;DHT22;2216;53.806;11.598;2023-05-23T05:18:55;16.70;52.50
4406;DHT22;2216;53.806;11.598;2023-05-23T05:21:21;16.70;52.70
4406;DHT22;2216;53.806;11.598;2023-05-23T05:23:47;16.70;52.60
4406;DHT22;2216;53.806;11.598;2023-05-23T05:26:12;16.60;52.50
4406;DHT22;2216;53.806;11.598;2023-05-23T05:28:38;16.60;52.50
4406;DHT22;2216;53.806;11.598;2023-05-23T05:31:05;16.60;52.50
4406;DHT22;2216;53.806;11.598;2023-05-23T05:33:31;16.60;52.50
4406;DHT22;2216;53.806;11.598;2023-05-23T05:36:05;16.60;52.60
4406;DHT22;2216;53.806;11.598;2023-05-23T05:38:31;16.60;52.60
4406;DHT22;2216;53.806;11.598;2023-05-23T05:40:57;16.60;52.70
4406;DHT22;2216;53.806;11.598;2023-05-23T05:43:24;16.50;52.70
4406;DHT22;2216;53.806;11.598;2023-05-23T05:45:50;16.50;53.10
4406;DHT22;2216;53.806;11.598;2023-05-23T05:48:16;16.50;53.10
4406;DHT22;2216;53.806;11.598;2023-05-23T05:50:42;16.50;52.90
4406;DHT22;2216;53.806;11.598;2023-05-23T05:53:10;16.50;53.10
4406;DHT22;2216;53.806;11.598;2023-05-23T05:55:36;16.50;52.90
4406;DHT22;2216;53.806;11.598;2023-05-23T05:58:02;16.50;52.90
4406;DHT22;2216;53.806;11.598;2023-05-23T06:00:28;16.50;52.80
4406;DHT22;2216;53.806;11.598;2023-05-23T06:02:55;16.50;52.90
4406;DHT22;2216;53.806;11.598;2023-05-23T06:05:24;16.50;52.90
4406;DHT22;2216;53.806;11.598;2023-05-23T06:07:50;16.50;53.00
4406;DHT22;2216;53.806;11.598;2023-05-23T06:10:16;16.60;53.20
4406;DHT22;2216;53.806;11.598;2023-05-23T06:12:42;16.50;53.10
4406;DHT22;2216;53.806;11.598;2023-05-23T06:15:10;16.50;53.10
4406;DHT22;2216;53.806;11.598;2023-05-23T06:17:36;16.50;53.10
4406;DHT22;2216;53.806;11.598;2023-05-23T06:20:01;16.50;53.10
4406;DHT22;2216;53.806;11.598;2023-05-23T06:22:29;16.50;53.10
4406;DHT22;2216;53.806;11.598;2023-05-23T06:24:54;16.50;53.10
4406;DHT22;2216;53.806;11.598;2023-05-23T06:27:20;16.60;53.20
4406;DHT22;2216;53.806;11.598;2023-05-23T06:29:46;16.60;53.20
4406;DHT22;2216;53.806;11.598;2023-05-23T06:32:11;16.60;53.20
4406;DHT22;2216;53.806;11.598;2023-05-23T06:34:37;16.60;53.10
4406;DHT22;2216;53.806;11.598;2023-05-23T06:37:03;16.60;53.30
4406;DHT22;2216;53.806;11.598;2023-05-23T06:39:28;16.70;53.30
4406;DHT22;2216;53.806;11.598;2023-05-23T06:41:54;16.70;53.50
4406;DHT22;2216;53.806;11.598;2023-05-23T06:44:20;16.70;53.40
4406;DHT22;2216;53.806;11.598;2023-05-23T06:46:46;16.70;53.40
4406;DHT22;2216;53.806;11.598;2023-05-23T06:49:12;16.70;53.40
4406;DHT22;2216;53.806;11.598;2023-05-23T06:51:39;16.80;53.60
4406;DHT22;2216;53.806;11.598;2023-05-23T06:54:05;16.80;53.70
4406;DHT22;2216;53.806;11.598;2023-05-23T06:56:30;16.90;53.70
4406;DHT22;2216;53.806;11.598;2023-05-23T06:58:57;16.90;53.50
4406;DHT22;2216;53.806;11.598;2023-05-23T07:01:23;17.00;53.50
4406;DHT22;2216;53.806;11.598;2023-05-23T07:03:48;17.00;53.50
4406;DHT22;2216;53.806;11.598;2023-05-23T07:06:14;17.00;53.40
4406;DHT22;2216;53.806;11.598;2023-05-23T07:08:40;17.10;53.50
4406;DHT22;2216;53.806;11.598;2023-05-23T07:11:06;17.10;53.50
4406;DHT22;2216;53.806;11.598;2023-05-23T07:13:32;17.20;53.50
4406;DHT22;2216;53.806;11.598;2023-05-23T07:15:57;17.20;53.60
4406;DHT22;2216;53.806;11.598;2023-05-23T07:18:23;17.30;53.70
4406;DHT22;2216;53.806;11.598;2023-05-23T07:20:49;17.30;53.60
4406;DHT22;2216;53.806;11.598;2023-05-23T07:23:15;17.40;53.70
4406;DHT22;2216;53.806;11.598;2023-05-23T07:25:41;17.40;53.70
4406;DHT22;2216;53.806;11.598;2023-05-23T07:28:07;17.50;53.60
4406;DHT22;2216;53.806;11.598;2023-05-23T07:30:33;17.60;53.80
4406;DHT22;2216;53.806;11.598;2023-05-23T07:32:59;17.60;53.70
4406;DHT22;2216;53.806;11.598;2023-05-23T07:35:25;17.50;53.60
4406;DHT22;2216;53.806;11.598;2023-05-23T07:37:51;17.80;53.70
4406;DHT22;2216;53.806;11.598;2023-05-23T07:40:18;17.80;53.60
4406;DHT22;2216;53.806;11.598;2023-05-23T07:42:44;17.90;53.70
4406;DHT22;2216;53.806;11.598;2023-05-23T07:45:10;17.90;53.60
4406;DHT22;2216;53.806;11.598;2023-05-23T07:47:36;18.00;53.70
4406;DHT22;2216;53.806;11.598;2023-05-23T07:50:02;18.00;53.70
4406;DHT22;2216;53.806;11.598;2023-05-23T07:52:28;18.10;53.70
4406;DHT22;2216;53.806;11.598;2023-05-23T07:54:55;18.10;53.70
4406;DHT22;2216;53.806;11.598;2023-05-23T07:57:21;18.10;53.60
4406;DHT22;2216;53.806;11.598;2023-05-23T07:59:48;18.10;53.60
4406;DHT22;2216;53.806;11.598;2023-05-23T08:02:15;18.20;53.70
4406;DHT22;2216;53.806;11.598;2023-05-23T08:04:41;18.20;53.80
4406;DHT22;2216;53.806;11.598;2023-05-23T08:07:07;18.20;53.60
4406;DHT22;2216;53.806;11.598;2023-05-23T08:09:34;18.20;53.70
4406;DHT22;2216;53.806;11.598;2023-05-23T08:12:00;18.30;53.80
4406;DHT22;2216;53.806;11.598;2023-05-23T08:14:26;18.30;53.70
4406;DHT22;2216;53.806;11.598;2023-05-23T08:16:52;18.40;53.80
4406;DHT22;2216;53.806;11.598;2023-05-23T08:19:18;18.40;53.80
4406;DHT22;2216;53.806;11.598;2023-05-23T08:21:44;18.40;53.80
4406;DHT22;2216;53.806;11.598;2023-05-23T08:24:11;18.50;53.90
4406;DHT22;2216;53.806;11.598;2023-05-23T08:26:37;18.50;54.00
4406;DHT22;2216;53.806;11.598;2023-05-23T08:29:04;18.70;54.00
4406;DHT22;2216;53.806;11.598;2023-05-23T08:31:30;18.70;54.10
4406;DHT22;2216;53.806;11.598;2023-05-23T08:33:56;18.80;54.10
4406;DHT22;2216;53.806;11.598;2023-05-23T08:36:23;18.90;54.10
4406;DHT22;2216;53.806;11.598;2023-05-23T08:38:49;18.90;54.30
4406;DHT22;2216;53.806;11.598;2023-05-23T08:41:20;18.90;54.30
4406;DHT22;2216;53.806;11.598;2023-05-23T08:43:47;18.90;53.90
4406;DHT22;2216;53.806;11.598;2023-05-23T08:46:13;18.90;54.00
4406;DHT22;2216;53.806;11.598;2023-05-23T08:48:41;18.90;54.00
4406;DHT22;2216;53.806;11.598;2023-05-23T08:51:12;18.80;54.00
4406;DHT22;2216;53.806;11.598;2023-05-23T08:53:41;18.80;55.50
4406;DHT22;2216;53.806;11.598;2023-05-23T08:56:11;18.80;55.00
4406;DHT22;2216;53.806;11.598;2023-05-23T08:58:38;18.70;54.60
4406;DHT22;2216;53.806;11.598;2023-05-23T09:01:07;18.60;54.50
4406;DHT22;2216;53.806;11.598;2023-05-23T09:03:37;18.50;55.40
4406;DHT22;2216;53.806;11.598;2023-05-23T09:06:08;18.30;55.50
4406;DHT22;2216;53.806;11.598;2023-05-23T09:08:35;18.20;56.10
4406;DHT22;2216;53.806;11.598;2023-05-23T09:11:02;18.10;56.20
4406;DHT22;2216;53.806;11.598;2023-05-23T09:13:32;18.30;56.10
4406;DHT22;2216;53.806;11.598;2023-05-23T09:18:43;18.00;57.20
4406;DHT22;2216;53.806;11.598;2023-05-23T09:21:10;18.00;56.30
4406;DHT22;2216;53.806;11.598;2023-05-23T09:23:38;18.00;57.70
4406;DHT22;2216;53.806;11.598;2023-05-23T09:26:06;18.00;56.90
4406;DHT22;2216;53.806;11.598;2023-05-23T09:28:33;18.00;56.70
4406;DHT22;2216;53.806;11.598;2023-05-23T09:31:00;17.90;56.80
4406;DHT22;2216;53.806;11.598;2023-05-23T09:33:44;17.90;56.50
4406;DHT22;2216;53.806;11.598;2023-05-23T09:36:12;18.00;56.70
4406;DHT22;2216;53.806;11.598;2023-05-23T09:38:42;18.00;56.90
4406;DHT22;2216;53.806;11.598;2023-05-23T09:41:09;18.00;58.00
4406;DHT22;2216;53.806;11.598;2023-05-23T09:43:39;18.00;58.00
4406;DHT22;2216;53.806;11.598;2023-05-23T09:46:12;18.20;57.90
4406;DHT22;2216;53.806;11.598;2023-05-23T09:48:37;18.30;58.10
4406;DHT22;2216;53.806;11.598;2023-05-23T09:51:04;18.50;58.00
4406;DHT22;2216;53.806;11.598;2023-05-23T09:53:31;18.60;58.60
4406;DHT22;2216;53.806;11.598;2023-05-23T09:55:58;18.80;57.50
4406;DHT22;2216;53.806;11.598;2023-05-23T09:58:26;18.80;57.80
4406;DHT22;2216;53.806;11.598;2023-05-23T10:00:55;18.90;57.10
4406;DHT22;2216;53.806;11.598;2023-05-23T10:03:27;18.90;56.90
4406;DHT22;2216;53.806;11.598;2023-05-23T10:05:59;18.80;56.50
4406;DHT22;2216;53.806;11.598;2023-05-23T10:08:36;18.80;56.50
4406;DHT22;2216;53.806;11.598;2023-05-23T10:13:40;18.80;56.30
4406;DHT22;2216;53.806;11.598;2023-05-23T10:16:08;18.60;56.40
4406;DHT22;2216;53.806;11.598;2023-05-23T10:18:42;18.50;56.40
4406;DHT22;2216;53.806;11.598;2023-05-23T10:21:10;18.30;56.50
4406;DHT22;2216;53.806;11.598;2023-05-23T10:23:37;18.20;57.20
4406;DHT22;2216;53.806;11.598;2023-05-23T10:26:04;18.10;56.70
4406;DHT22;2216;53.806;11.598;2023-05-23T10:28:31;17.90;56.70
4406;DHT22;2216;53.806;11.598;2023-05-23T10:30:57;17.80;56.30
4406;DHT22;2216;53.806;11.598;2023-05-23T10:33:26;17.70;56.50
4406;DHT22;2216;53.806;11.598;2023-05-23T10:36:12;17.60;56.70
4406;DHT22;2216;53.806;11.598;2023-05-23T10:38:48;17.50;57.10
4406;DHT22;2216;53.806;11.598;2023-05-23T10:41:33;17.40;56.90
4406;DHT22;2216;53.806;11.598;2023-05-23T10:46:54;17.20;57.00
4406;DHT22;2216;53.806;11.598;2023-05-23T10:49:37;17.10;58.00
4406;DHT22;2216;53.806;11.598;2023-05-23T10:52:04;17.00;57.10
4406;DHT22;2216;53.806;11.598;2023-05-23T10:54:52;16.90;57.30
4406;DHT22;2216;53.806;11.598;2023-05-23T10:57:21;16.90;57.70
4406;DHT22;2216;53.806;11.598;2023-05-23T10:59:50;16.80;57.50
4406;DHT22;2216;53.806;11.598;2023-05-23T11:02:25;16.80;57.70
4406;DHT22;2216;53.806;11.598;2023-05-23T11:07:39;16.70;57.70
4406;DHT22;2216;53.806;11.598;2023-05-23T11:10:09;16.60;58.10
4406;DHT22;2216;53.806;11.598;2023-05-23T11:12:38;16.50;58.30
4406;DHT22;2216;53.806;11.598;2023-05-23T11:17:56;16.40;57.80
4406;DHT22;2216;53.806;11.598;2023-05-23T11:20:24;16.30;57.70
4406;DHT22;2216;53.806;11.598;2023-05-23T11:22:53;16.20;57.50
4406;DHT22;2216;53.806;11.598;2023-05-23T11:25:47;16.10;58.40
4406;DHT22;2216;53.806;11.598;2023-05-23T11:28:13;15.90;58.40
4406;DHT22;2216;53.806;11.598;2023-05-23T11:30:39;15.80;58.00
4406;DHT22;2216;53.806;11.598;2023-05-23T11:33:07;15.80;58.10
4406;DHT22;2216;53.806;11.598;2023-05-23T11:35:47;15.70;58.00
4406;DHT22;2216;53.806;11.598;2023-05-23T11:38:14;15.70;58.50
4406;DHT22;2216;53.806;11.598;2023-05-23T11:40:45;15.60;59.10
4406;DHT22;2216;53.806;11.598;2023-05-23T11:43:13;15.60;58.30
4406;DHT22;2216;53.806;11.598;2023-05-23T11:45:40;15.50;59.60
4406;DHT22;2216;53.806;11.598;2023-05-23T11:48:14;15.50;59.80
4406;DHT22;2216;53.806;11.598;2023-05-23T11:50:47;15.40;59.80
4406;DHT22;2216;53.806;11.598;2023-05-23T11:53:17;15.40;59.00
4406;DHT22;2216;53.806;11.598;2023-05-23T11:55:54;15.40;59.90
4406;DHT22;2216;53.806;11.598;2023-05-23T11:58:27;15.30;59.50
4406;DHT22;2216;53.806;11.598;2023-05-23T12:01:08;15.30;60.40
4406;DHT22;2216;53.806;11.598;2023-05-23T12:03:44;15.20;59.90
4406;DHT22;2216;53.806;11.598;2023-05-23T12:06:14;15.20;60.20
4406;DHT22;2216;53.806;11.598;2023-05-23T12:08:41;15.10;59.60
4406;DHT22;2216;53.806;11.598;2023-05-23T12:11:06;15.10;60.70
4406;DHT22;2216;53.806;11.598;2023-05-23T12:13:32;15.00;59.90
4406;DHT22;2216;53.806;11.598;2023-05-23T12:15:59;15.00;59.90
4406;DHT22;2216;53.806;11.598;2023-05-23T12:18:31;14.90;59.50
4406;DHT22;2216;53.806;11.598;2023-05-23T12:21:03;14.80;60.70
4406;DHT22;2216;53.806;11.598;2023-05-23T12:23:33;14.80;60.30
4406;DHT22;2216;53.806;11.598;2023-05-23T12:26:03;14.70;59.90
4406;DHT22;2216;53.806;11.598;2023-05-23T12:28:35;14.60;60.00
4406;DHT22;2216;53.806;11.598;2023-05-23T12:31:20;14.50;60.40
4406;DHT22;2216;53.806;11.598;2023-05-23T12:33:47;14.40;60.00
4406;DHT22;2216;53.806;11.598;2023-05-23T12:36:24;14.40;60.40
4406;DHT22;2216;53.806;11.598;2023-05-23T12:38:51;14.30;59.70
4406;DHT22;2216;53.806;11.598;2023-05-23T12:41:18;14.30;59.30
4406;DHT22;2216;53.806;11.598;2023-05-23T12:43:52;14.30;60.10
4406;DHT22;2216;53.806;11.598;2023-05-23T12:46:20;14.20;61.00
4406;DHT22;2216;53.806;11.598;2023-05-23T12:48:50;14.10;61.40
4406;DHT22;2216;53.806;11.598;2023-05-23T12:51:16;14.10;60.50
4406;DHT22;2216;53.806;11.598;2023-05-23T12:53:42;14.00;60.70
4406;DHT22;2216;53.806;11.598;2023-05-23T12:56:08;14.00;60.10
4406;DHT22;2216;53.806;11.598;2023-05-23T12:58:33;14.00;62.10
4406;DHT22;2216;53.806;11.598;2023-05-23T13:01:00;14.00;60.70
4406;DHT22;2216;53.806;11.598;2023-05-23T13:03:30;13.90;61.40
4406;DHT22;2216;53.806;11.598;2023-05-23T13:05:56;13.80;61.80
4406;DHT22;2216;53.806;11.598;2023-05-23T13:08:23;13.80;61.00
4406;DHT22;2216;53.806;11.598;2023-05-23T13:10:49;13.80;60.40
4406;DHT22;2216;53.806;11.598;2023-05-23T13:13:15;13.70;60.40
4406;DHT22;2216;53.806;11.598;2023-05-23T13:15:41;13.70;60.30
4406;DHT22;2216;53.806;11.598;2023-05-23T13:18:06;13.70;60.40
4406;DHT22;2216;53.806;11.598;2023-05-23T13:20:32;13.60;60.90
4406;DHT22;2216;53.806;11.598;2023-05-23T13:22:58;13.60;59.90
4406;DHT22;2216;53.806;11.598;2023-05-23T13:25:25;13.60;59.90
4406;DHT22;2216;53.806;11.598;2023-05-23T13:27:51;13.50;60.30
4406;DHT22;2216;53.806;11.598;2023-05-23T13:30:19;13.50;61.80
4406;DHT22;2216;53.806;11.598;2023-05-23T13:32:45;13.50;61.50
4406;DHT22;2216;53.806;11.598;2023-05-23T13:35:11;13.50;60.70
4406;DHT22;2216;53.806;11.598;2023-05-23T13:37:37;13.40;61.50
4406;DHT22;2216;53.806;11.598;2023-05-23T13:40:03;13.40;61.60
4406;DHT22;2216;53.806;11.598;2023-05-23T13:42:30;13.30;61.60
4406;DHT22;2216;53.806;11.598;2023-05-23T13:44:56;13.30;61.70
4406;DHT22;2216;53.806;11.598;2023-05-23T13:47:22;13.20;60.90
4406;DHT22;2216;53.806;11.598;2023-05-23T13:49:47;13.20;61.90
4406;DHT22;2216;53.806;11.598;2023-05-23T13:52:13;13.10;61.10
4406;DHT22;2216;53.806;11.598;2023-05-23T13:54:39;13.10;61.50
4406;DHT22;2216;53.806;11.598;2023-05-23T13:57:06;13.10;60.60
4406;DHT22;2216;53.806;11.598;2023-05-23T13:59:32;13.00;60.40
4406;DHT22;2216;53.806;11.598;2023-05-23T14:01:58;13.10;60.50
4406;DHT22;2216;53.806;11.598;2023-05-23T14:04:24;13.10;62.30
4406;DHT22;2216;53.806;11.598;2023-05-23T14:06:49;13.10;62.00
4406;DHT22;2216;53.806;11.598;2023-05-23T14:09:16;13.10;63.30
4406;DHT22;2216;53.806;11.598;2023-05-23T14:11:42;13.20;62.60
4406;DHT22;2216;53.806;11.598;2023-05-23T14:14:08;13.30;62.10
4406;DHT22;2216;53.806;11.598;2023-05-23T14:16:34;13.50;62.40
4406;DHT22;2216;53.806;11.598;2023-05-23T14:18:59;13.60;62.80
4406;DHT22;2216;53.806;11.598;2023-05-23T14:21:25;13.80;62.50
4406;DHT22;2216;53.806;11.598;2023-05-23T14:23:52;14.00;62.70
4406;DHT22;2216;53.806;11.598;2023-05-23T14:26:18;14.20;64.00
4406;DHT22;2216;53.806;11.598;2023-05-23T14:28:44;14.30;62.40
4406;DHT22;2216;53.806;11.598;2023-05-23T14:31:09;14.40;61.90
4406;DHT22;2216;53.806;11.598;2023-05-23T14:33:35;14.50;62.40
4406;DHT22;2216;53.806;11.598;2023-05-23T14:36:01;14.60;61.70
4406;DHT22;2216;53.806;11.598;2023-05-23T14:38:27;14.60;61.60
4406;DHT22;2216;53.806;11.598;2023-05-23T14:40:52;14.60;61.70
4406;DHT22;2216;53.806;11.598;2023-05-23T14:43:19;14.70;62.00
4406;DHT22;2216;53.806;11.598;2023-05-23T14:45:45;14.80;61.40
4406;DHT22;2216;53.806;11.598;2023-05-23T14:48:11;14.90;61.50
4406;DHT22;2216;53.806;11.598;2023-05-23T14:50:36;15.00;61.20
4406;DHT22;2216;53.806;11.598;2023-05-23T14:53:02;15.00;61.10
4406;DHT22;2216;53.806;11.598;2023-05-23T14:55:28;15.20;61.60
4406;DHT22;2216;53.806;11.598;2023-05-23T14:57:54;15.30;61.60
4406;DHT22;2216;53.806;11.598;2023-05-23T15:00:20;15.40;61.40
4406;DHT22;2216;53.806;11.598;2023-05-23T15:02:45;15.50;60.80
4406;DHT22;2216;53.806;11.598;2023-05-23T15:05:12;15.60;60.50
4406;DHT22;2216;53.806;11.598;2023-05-23T15:07:38;15.70;60.40
4406;DHT22;2216;53.806;11.598;2023-05-23T15:10:04;15.70;60.00
4406;DHT22;2216;53.806;11.598;2023-05-23T15:12:30;15.70;59.80
4406;DHT22;2216;53.806;11.598;2023-05-23T15:14:57;15.70;59.60
4406;DHT22;2216;53.806;11.598;2023-05-23T15:17:28;15.80;59.70
4406;DHT22;2216;53.806;11.598;2023-05-23T15:19:55;15.80;59.70
4406;DHT22;2216;53.806;11.598;2023-05-23T15:22:21;15.90;59.70
4406;DHT22;2216;53.806;11.598;2023-05-23T15:24:46;15.90;59.50
4406;DHT22;2216;53.806;11.598;2023-05-23T15:27:12;15.80;59.50
4406;DHT22;2216;53.806;11.598;2023-05-23T15:29:38;16.00;59.50
4406;DHT22;2216;53.806;11.598;2023-05-23T15:32:06;15.90;59.30
4406;DHT22;2216;53.806;11.598;2023-05-23T15:34:32;15.90;59.10
4406;DHT22;2216;53.806;11.598;2023-05-23T15:36:58;15.90;59.00
4406;DHT22;2216;53.806;11.598;2023-05-23T15:39:27;15.90;58.90
4406;DHT22;2216;53.806;11.598;2023-05-23T15:41:53;15.80;58.80
4406;DHT22;2216;53.806;11.598;2023-05-23T15:44:19;15.80;58.60
4406;DHT22;2216;53.806;11.598;2023-05-23T15:46:49;15.70;58.70
4406;DHT22;2216;53.806;11.598;2023-05-23T15:49:16;15.60;58.50
4406;DHT22;2216;53.806;11.598;2023-05-23T15:51:43;15.60;58.60
4406;DHT22;2216;53.806;11.598;2023-05-23T15:54:12;15.50;58.70
4406;DHT22;2216;53.806;11.598;2023-05-23T15:56:38;15.50;58.80
4406;DHT22;2216;53.806;11.598;2023-05-23T15:59:04;15.50;58.80
4406;DHT22;2216;53.806;11.598;2023-05-23T16:01:29;15.50;58.90
4406;DHT22;2216;53.806;11.598;2023-05-23T16:03:55;15.60;59.10